createdAt,value
2017-10-26T00:00:35.132Z,0
2017-10-26T00:01:35.104Z,0
2017-10-26T00:02:35.104Z,0
2017-10-26T00:03:35.085Z,0
2017-10-26T00:04:35.037Z,0
2017-10-26T00:05:35.031Z,0
2017-10-26T00:06:34.993Z,0
2017-10-26T00:07:34.974Z,0
2017-10-26T00:08:34.968Z,0
2017-10-26T00:09:34.949Z,0
2017-10-26T00:10:34.910Z,0
2017-10-26T00:11:34.892Z,0
2017-10-26T00:12:34.863Z,0
2017-10-26T00:13:34.854Z,0
2017-10-26T00:14:34.816Z,0
2017-10-26T00:15:34.811Z,0
2017-10-26T00:16:34.769Z,0
2017-10-26T00:17:34.426Z,0
2017-10-26T00:18:34.758Z,0
2017-10-26T00:19:34.704Z,0
2017-10-26T00:20:34.681Z,0
2017-10-26T00:21:34.662Z,0
2017-10-26T00:22:34.634Z,0
2017-10-26T00:23:34.619Z,0
2017-10-26T00:24:34.593Z,0
2017-10-26T00:25:34.581Z,0
2017-10-26T00:26:34.230Z,0
2017-10-26T00:27:34.529Z,0
2017-10-26T00:28:34.503Z,0
2017-10-26T00:29:34.478Z,0
2017-10-26T00:30:34.463Z,0
2017-10-26T00:31:34.441Z,0
2017-10-26T00:32:34.404Z,0
2017-10-26T00:33:34.397Z,0
2017-10-26T00:34:34.378Z,0
2017-10-26T00:35:34.345Z,0
2017-10-26T00:36:34.328Z,0
2017-10-26T00:37:34.302Z,0
2017-10-26T00:38:34.277Z,0
2017-10-26T00:39:34.250Z,0
2017-10-26T00:40:34.228Z,0
2017-10-26T00:41:34.203Z,0
2017-10-26T00:42:33.865Z,0
2017-10-26T00:43:34.183Z,0
2017-10-26T00:44:34.152Z,0
2017-10-26T00:45:34.130Z,0
2017-10-26T00:46:34.092Z,0
2017-10-26T00:47:34.070Z,0
2017-10-26T00:48:34.050Z,0
2017-10-26T00:49:34.040Z,0
2017-10-26T00:50:34.002Z,0
2017-10-26T00:51:33.981Z,0
2017-10-26T00:52:33.965Z,0
2017-10-26T00:53:33.938Z,0
2017-10-26T00:54:33.595Z,0
2017-10-26T00:55:33.894Z,0
2017-10-26T00:56:33.867Z,0
2017-10-26T00:57:33.847Z,0
2017-10-26T00:58:33.829Z,0
2017-10-26T00:59:33.801Z,0
2017-10-26T01:00:33.782Z,0
2017-10-26T01:01:33.757Z,0
2017-10-26T01:02:33.742Z,0
2017-10-26T01:03:33.714Z,0
2017-10-26T01:04:33.689Z,0
2017-10-26T01:05:33.673Z,0
2017-10-26T01:06:33.635Z,0
2017-10-26T01:07:33.305Z,0
2017-10-26T01:08:33.289Z,0
2017-10-26T01:09:33.572Z,0
2017-10-26T01:10:33.557Z,0
2017-10-26T01:11:33.213Z,0
2017-10-26T01:12:33.519Z,0
2017-10-26T01:13:33.504Z,0
2017-10-26T01:14:33.459Z,0
2017-10-26T01:15:33.451Z,0
2017-10-26T01:16:33.421Z,0
2017-10-26T01:17:33.393Z,0
2017-10-26T01:18:33.383Z,0
2017-10-26T01:19:33.347Z,0
2017-10-26T01:20:33.334Z,0
2017-10-26T01:21:33.324Z,0
2017-10-26T01:22:33.285Z,0
2017-10-26T01:23:33.276Z,0
2017-10-26T01:24:33.246Z,0
2017-10-26T01:25:33.216Z,0
2017-10-26T01:26:33.188Z,0
2017-10-26T01:27:33.167Z,0
2017-10-26T01:28:32.830Z,0
2017-10-26T01:29:33.132Z,0
2017-10-26T01:30:32.790Z,0
2017-10-26T01:31:33.082Z,0
2017-10-26T01:32:33.079Z,0
2017-10-26T01:33:33.038Z,0
2017-10-26T01:34:33.039Z,0
2017-10-26T01:35:32.989Z,0
2017-10-26T01:36:32.976Z,0
2017-10-26T01:37:32.947Z,0
2017-10-26T01:38:32.916Z,0
2017-10-26T01:39:32.897Z,0
2017-10-26T01:40:32.881Z,0
2017-10-26T01:41:32.865Z,0
2017-10-26T01:42:32.828Z,0
2017-10-26T01:43:32.805Z,0
2017-10-26T01:44:32.470Z,0
2017-10-26T01:45:32.765Z,0
2017-10-26T01:46:32.755Z,0
2017-10-26T01:47:32.718Z,0
2017-10-26T01:48:32.702Z,0
2017-10-26T01:49:32.354Z,0
2017-10-26T01:50:32.653Z,0
2017-10-26T01:51:32.630Z,0
2017-10-26T01:52:32.595Z,0
2017-10-26T01:53:32.588Z,0
2017-10-26T01:54:32.552Z,0
2017-10-26T01:55:32.545Z,0
2017-10-26T01:56:32.519Z,0
2017-10-26T01:57:32.496Z,0
2017-10-26T01:58:32.465Z,0
2017-10-26T01:59:32.449Z,0
2017-10-26T02:00:32.421Z,0
2017-10-26T02:01:32.423Z,0
2017-10-26T02:02:32.384Z,0
2017-10-26T02:03:32.363Z,0
2017-10-26T02:04:32.703Z,0
2017-10-26T02:05:32.315Z,0
2017-10-26T02:06:32.288Z,0
2017-10-26T02:07:32.268Z,0
2017-10-26T02:08:32.244Z,0
2017-10-26T02:09:32.226Z,0
2017-10-26T02:10:32.207Z,0
2017-10-26T02:11:32.177Z,0
2017-10-26T02:12:32.150Z,0
2017-10-26T02:13:31.495Z,0
2017-10-26T02:14:32.107Z,0
2017-10-26T02:15:31.768Z,0
2017-10-26T02:16:32.062Z,0
2017-10-26T02:17:32.048Z,0
2017-10-26T02:18:31.693Z,0
2017-10-26T02:19:31.993Z,0
2017-10-26T02:20:31.998Z,0
2017-10-26T02:21:31.947Z,0
2017-10-26T02:22:31.615Z,0
2017-10-26T02:23:31.911Z,0
2017-10-26T02:24:31.566Z,0
2017-10-26T02:25:31.873Z,0
2017-10-26T02:26:31.853Z,0
2017-10-26T02:27:31.869Z,0
2017-10-26T02:28:31.793Z,0
2017-10-26T02:29:31.768Z,0
2017-10-26T02:30:31.748Z,0
2017-10-26T02:31:31.727Z,0
2017-10-26T02:32:31.724Z,0
2017-10-26T02:33:31.366Z,0
2017-10-26T02:34:31.680Z,0
2017-10-26T02:35:31.632Z,0
2017-10-26T02:36:31.612Z,0
2017-10-26T02:37:31.588Z,0
2017-10-26T02:38:31.586Z,0
2017-10-26T02:39:31.538Z,0
2017-10-26T02:40:31.522Z,0
2017-10-26T02:41:31.495Z,0
2017-10-26T02:42:31.159Z,0
2017-10-26T02:43:31.464Z,0
2017-10-26T02:44:31.440Z,0
2017-10-26T02:45:31.418Z,0
2017-10-26T02:46:31.389Z,0
2017-10-26T02:47:31.363Z,0
2017-10-26T02:48:31.342Z,0
2017-10-26T02:49:31.010Z,0
2017-10-26T02:50:30.990Z,0
2017-10-26T02:51:31.277Z,0
2017-10-26T02:52:31.247Z,0
2017-10-26T02:53:31.241Z,0
2017-10-26T02:54:31.212Z,0
2017-10-26T02:55:31.181Z,0
2017-10-26T02:56:31.154Z,0
2017-10-26T02:57:31.140Z,0
2017-10-26T02:58:31.136Z,0
2017-10-26T02:59:31.099Z,0
2017-10-26T03:00:31.102Z,0
2017-10-26T03:01:30.731Z,0
2017-10-26T03:02:31.034Z,0
2017-10-26T03:03:30.992Z,0
2017-10-26T03:04:30.984Z,0
2017-10-26T03:05:30.640Z,0
2017-10-26T03:06:30.935Z,0
2017-10-26T03:07:30.599Z,0
2017-10-26T03:08:30.568Z,0
2017-10-26T03:09:30.866Z,0
2017-10-26T03:10:30.846Z,0
2017-10-26T03:11:30.823Z,0
2017-10-26T03:12:30.817Z,0
2017-10-26T03:13:30.776Z,0
2017-10-26T03:14:30.752Z,0
2017-10-26T03:15:30.740Z,0
2017-10-26T03:16:30.720Z,0
2017-10-26T03:17:30.686Z,0
2017-10-26T03:18:30.666Z,0
2017-10-26T03:19:30.639Z,0
2017-10-26T03:20:30.617Z,0
2017-10-26T03:21:30.612Z,0
2017-10-26T03:22:30.582Z,0
2017-10-26T03:23:30.556Z,0
2017-10-26T03:24:30.536Z,0
2017-10-26T03:25:30.506Z,0
2017-10-26T03:26:30.484Z,0
2017-10-26T03:27:30.150Z,0
2017-10-26T03:28:30.452Z,0
2017-10-26T03:29:30.422Z,0
2017-10-26T03:30:30.416Z,0
2017-10-26T03:31:30.361Z,0
2017-10-26T03:32:30.353Z,0
2017-10-26T03:33:30.327Z,0
2017-10-26T03:34:30.299Z,0
2017-10-26T03:35:30.279Z,0
2017-10-26T03:36:30.269Z,0
2017-10-26T03:37:30.251Z,0
2017-10-26T03:38:30.230Z,0
2017-10-26T03:39:29.550Z,0
2017-10-26T03:40:29.859Z,0
2017-10-26T03:41:30.171Z,0
2017-10-26T03:42:30.135Z,0
2017-10-26T03:43:31.133Z,0
2017-10-26T03:44:29.761Z,0
2017-10-26T03:45:30.058Z,0
2017-10-26T03:46:30.032Z,0
2017-10-26T03:47:30.010Z,0
2017-10-26T03:48:29.987Z,0
2017-10-26T03:49:29.970Z,0
2017-10-26T03:50:29.940Z,0
2017-10-26T03:51:29.918Z,0
2017-10-26T03:52:29.896Z,0
2017-10-26T03:53:29.869Z,0
2017-10-26T03:54:29.852Z,0
2017-10-26T03:55:29.837Z,0
2017-10-26T03:56:29.808Z,0
2017-10-26T03:57:29.812Z,0
2017-10-26T03:58:29.773Z,0
2017-10-26T03:59:29.736Z,0
2017-10-26T04:00:29.721Z,0
2017-10-26T04:01:29.702Z,0
2017-10-26T04:02:29.667Z,0
2017-10-26T04:03:29.651Z,0
2017-10-26T04:04:29.633Z,0
2017-10-26T04:05:29.598Z,0
2017-10-26T04:06:29.581Z,0
2017-10-26T04:07:29.562Z,0
2017-10-26T04:08:29.537Z,0
2017-10-26T04:09:29.514Z,0
2017-10-26T04:10:29.489Z,0
2017-10-26T04:11:29.466Z,0
2017-10-26T04:12:29.122Z,0
2017-10-26T04:13:29.421Z,0
2017-10-26T04:14:29.404Z,0
2017-10-26T04:15:29.376Z,0
2017-10-26T04:16:29.354Z,0
2017-10-26T04:17:29.328Z,0
2017-10-26T04:18:28.995Z,0
2017-10-26T04:19:28.967Z,0
2017-10-26T04:20:29.263Z,0
2017-10-26T04:21:29.245Z,0
2017-10-26T04:22:28.896Z,0
2017-10-26T04:23:29.199Z,0
2017-10-26T04:24:29.177Z,0
2017-10-26T04:25:29.151Z,0
2017-10-26T04:26:29.135Z,0
2017-10-26T04:27:29.109Z,0
2017-10-26T04:28:29.093Z,0
2017-10-26T04:29:29.076Z,0
2017-10-26T04:30:29.034Z,0
2017-10-26T04:31:28.375Z,0
2017-10-26T04:32:28.996Z,0
2017-10-26T04:33:28.967Z,0
2017-10-26T04:34:28.949Z,0
2017-10-26T04:35:28.623Z,0
2017-10-26T04:36:28.911Z,0
2017-10-26T04:37:28.885Z,0
2017-10-26T04:38:28.859Z,0
2017-10-26T04:39:28.838Z,0
2017-10-26T04:40:28.810Z,0
2017-10-26T04:41:28.791Z,0
2017-10-26T04:42:28.770Z,0
2017-10-26T04:43:28.743Z,0
2017-10-26T04:44:28.407Z,0
2017-10-26T04:45:28.709Z,0
2017-10-26T04:46:28.676Z,0
2017-10-26T04:47:28.650Z,0
2017-10-26T04:48:28.636Z,0
2017-10-26T04:49:28.610Z,0
2017-10-26T04:50:28.589Z,0
2017-10-26T04:51:28.583Z,0
2017-10-26T04:52:28.562Z,0
2017-10-26T04:53:28.536Z,0
2017-10-26T04:54:28.503Z,0
2017-10-26T04:55:28.472Z,0
2017-10-26T04:56:28.458Z,0
2017-10-26T04:57:28.443Z,0
2017-10-26T04:58:28.420Z,0
2017-10-26T04:59:28.403Z,0
2017-10-26T05:00:28.384Z,0
2017-10-26T05:01:28.337Z,0
2017-10-26T05:02:28.324Z,0
2017-10-26T05:03:28.298Z,0
2017-10-26T05:04:28.292Z,0
2017-10-26T05:05:28.252Z,0
2017-10-26T05:06:28.231Z,0
2017-10-26T05:07:28.223Z,0
2017-10-26T05:08:28.186Z,0
2017-10-26T05:09:28.158Z,0
2017-10-26T05:10:28.139Z,0
2017-10-26T05:11:28.133Z,0
2017-10-26T05:12:28.097Z,0
2017-10-26T05:13:28.078Z,0
2017-10-26T05:14:28.048Z,0
2017-10-26T05:15:28.038Z,0
2017-10-26T05:16:28.009Z,0
2017-10-26T05:17:27.986Z,0
2017-10-26T05:18:27.972Z,0
2017-10-26T05:19:27.961Z,0
2017-10-26T05:20:27.920Z,0
2017-10-26T05:21:27.884Z,0
2017-10-26T05:22:27.550Z,0
2017-10-26T05:23:27.869Z,0
2017-10-26T05:24:27.838Z,0
2017-10-26T05:25:27.802Z,0
2017-10-26T05:26:27.820Z,0
2017-10-26T05:27:27.755Z,0
2017-10-26T05:28:27.748Z,0
2017-10-26T05:29:27.708Z,0
2017-10-26T05:30:27.692Z,0
2017-10-26T05:31:27.674Z,0
2017-10-26T05:32:27.642Z,0
2017-10-26T05:33:27.636Z,0
2017-10-26T05:34:27.623Z,0
2017-10-26T05:35:27.576Z,0
2017-10-26T05:36:27.556Z,0
2017-10-26T05:37:27.216Z,0
2017-10-26T05:38:27.506Z,0
2017-10-26T05:39:27.494Z,0
2017-10-26T05:40:27.465Z,0
2017-10-26T05:41:27.440Z,0
2017-10-26T05:42:27.426Z,0
2017-10-26T05:43:27.079Z,0
2017-10-26T05:44:27.382Z,0
2017-10-26T05:45:27.353Z,4
2017-10-26T05:46:27.335Z,4
2017-10-26T05:47:27.319Z,4
2017-10-26T05:48:27.293Z,4
2017-10-26T05:49:27.271Z,4
2017-10-26T05:50:27.245Z,4
2017-10-26T05:51:27.222Z,8
2017-10-26T05:52:27.199Z,4
2017-10-26T05:53:27.175Z,4
2017-10-26T05:54:27.155Z,8
2017-10-26T05:55:27.128Z,8
2017-10-26T05:56:27.113Z,12
2017-10-26T05:57:27.075Z,16
2017-10-26T05:58:27.060Z,16
2017-10-26T05:59:26.717Z,20
2017-10-26T06:00:27.015Z,24
2017-10-26T06:01:26.989Z,24
2017-10-26T06:02:26.980Z,32
2017-10-26T06:03:26.962Z,36
2017-10-26T06:04:26.927Z,40
2017-10-26T06:05:26.906Z,48
2017-10-26T06:06:26.885Z,56
2017-10-26T06:07:26.861Z,60
2017-10-26T06:08:26.835Z,64
2017-10-26T06:09:26.822Z,76
2017-10-26T06:10:26.796Z,84
2017-10-26T06:11:26.828Z,92
2017-10-26T06:12:26.744Z,104
2017-10-26T06:13:26.738Z,100
2017-10-26T06:14:26.703Z,116
2017-10-26T06:15:26.681Z,120
2017-10-26T06:16:26.666Z,136
2017-10-26T06:17:25.993Z,156
2017-10-26T06:18:26.614Z,168
2017-10-26T06:19:26.604Z,164
2017-10-26T06:20:26.565Z,160
2017-10-26T06:21:26.889Z,184
2017-10-26T06:22:26.525Z,220
2017-10-26T06:23:26.518Z,220
2017-10-26T06:24:26.478Z,232
2017-10-26T06:25:26.475Z,232
2017-10-26T06:26:26.471Z,200
2017-10-26T06:27:26.412Z,212
2017-10-26T06:28:26.391Z,304
2017-10-26T06:29:26.050Z,264
2017-10-26T06:30:26.343Z,276
2017-10-26T06:31:26.331Z,292
2017-10-26T06:32:26.300Z,372
2017-10-26T06:33:26.286Z,400
2017-10-26T06:34:26.251Z,404
2017-10-26T06:35:26.254Z,468
2017-10-26T06:36:26.209Z,464
2017-10-26T06:37:26.200Z,488
2017-10-26T06:38:26.167Z,512
2017-10-26T06:39:26.148Z,516
2017-10-26T06:40:26.155Z,500
2017-10-26T06:41:26.106Z,488
2017-10-26T06:42:26.081Z,516
2017-10-26T06:43:25.727Z,736
2017-10-26T06:44:26.029Z,700
2017-10-26T06:45:25.688Z,664
2017-10-26T06:46:25.983Z,672
2017-10-26T06:47:25.953Z,720
2017-10-26T06:48:25.932Z,764
2017-10-26T06:49:25.920Z,772
2017-10-26T06:50:26.263Z,764
2017-10-26T06:51:25.553Z,748
2017-10-26T06:52:25.850Z,840
2017-10-26T06:53:25.826Z,756
2017-10-26T06:54:25.497Z,736
2017-10-26T06:55:25.814Z,768
2017-10-26T06:56:25.773Z,692
2017-10-26T06:57:25.738Z,604
2017-10-26T06:58:25.718Z,748
2017-10-26T06:59:25.692Z,768
2017-10-26T07:00:25.350Z,944
2017-10-26T07:01:25.647Z,760
2017-10-26T07:02:25.632Z,940
2017-10-26T07:03:25.287Z,944
2017-10-26T07:04:25.575Z,808
2017-10-26T07:05:25.560Z,928
2017-10-26T07:06:25.539Z,1100
2017-10-26T07:07:25.523Z,1216
2017-10-26T07:08:25.499Z,1664
2017-10-26T07:09:25.469Z,1840
2017-10-26T07:10:25.454Z,2108
2017-10-26T07:11:25.425Z,2472
2017-10-26T07:12:25.399Z,2996
2017-10-26T07:13:25.383Z,2892
2017-10-26T07:14:25.352Z,2864
2017-10-26T07:15:25.334Z,3384
2017-10-26T07:16:25.318Z,3088
2017-10-26T07:17:25.287Z,3048
2017-10-26T07:18:25.282Z,3136
2017-10-26T07:19:25.256Z,3236
2017-10-26T07:20:25.237Z,3284
2017-10-26T07:21:25.202Z,3408
2017-10-26T07:22:25.177Z,3772
2017-10-26T07:23:25.155Z,3984
2017-10-26T07:24:24.824Z,4000
2017-10-26T07:25:24.795Z,3368
2017-10-26T07:26:25.090Z,3356
2017-10-26T07:27:25.068Z,3192
2017-10-26T07:28:25.405Z,3124
2017-10-26T07:29:25.026Z,3148
2017-10-26T07:30:25.008Z,3228
2017-10-26T07:31:24.978Z,3316
2017-10-26T07:32:24.641Z,3480
2017-10-26T07:33:24.630Z,3808
2017-10-26T07:34:24.908Z,4012
2017-10-26T07:35:24.918Z,4224
2017-10-26T07:36:24.877Z,4540
2017-10-26T07:37:24.846Z,4860
2017-10-26T07:38:24.509Z,4800
2017-10-26T07:39:24.479Z,4740
2017-10-26T07:40:24.781Z,4828
2017-10-26T07:41:24.778Z,4392
2017-10-26T07:42:24.736Z,4484
2017-10-26T07:43:24.725Z,4204
2017-10-26T07:44:24.369Z,4112
2017-10-26T07:45:24.676Z,4288
2017-10-26T07:46:24.644Z,4388
2017-10-26T07:47:24.626Z,4356
2017-10-26T07:48:24.600Z,4568
2017-10-26T07:49:24.258Z,4272
2017-10-26T07:50:24.562Z,4868
2017-10-26T07:51:24.534Z,4668
2017-10-26T07:52:24.518Z,4740
2017-10-26T07:53:24.490Z,4692
2017-10-26T07:54:24.477Z,4176
2017-10-26T07:55:24.446Z,3844
2017-10-26T07:56:24.445Z,3808
2017-10-26T07:57:24.407Z,3532
2017-10-26T07:58:24.394Z,3836
2017-10-26T07:59:24.364Z,3560
2017-10-26T08:00:24.350Z,3616
2017-10-26T08:01:24.320Z,3676
2017-10-26T08:02:24.315Z,4068
2017-10-26T08:03:24.277Z,3864
2017-10-26T08:04:23.944Z,3692
2017-10-26T08:05:23.923Z,3412
2017-10-26T08:06:23.903Z,4028
2017-10-26T08:07:23.876Z,4252
2017-10-26T08:08:24.161Z,3832
2017-10-26T08:09:24.148Z,3912
2017-10-26T08:10:24.122Z,4236
2017-10-26T08:11:24.118Z,4884
2017-10-26T08:12:24.094Z,5116
2017-10-26T08:13:24.094Z,4552
2017-10-26T08:14:24.043Z,4324
2017-10-26T08:15:23.376Z,4332
2017-10-26T08:16:23.997Z,3608
2017-10-26T08:17:23.982Z,3136
2017-10-26T08:18:23.956Z,3380
2017-10-26T08:19:23.942Z,3588
2017-10-26T08:20:23.902Z,4252
2017-10-26T08:21:23.887Z,3776
2017-10-26T08:22:23.864Z,4236
2017-10-26T08:23:23.836Z,3664
2017-10-26T08:24:23.826Z,3684
2017-10-26T08:25:23.827Z,4192
2017-10-26T08:26:23.779Z,4520
2017-10-26T08:27:23.760Z,4732
2017-10-26T08:28:23.739Z,4744
2017-10-26T08:29:23.411Z,5464
2017-10-26T08:30:23.371Z,4928
2017-10-26T08:31:23.367Z,6332
2017-10-26T08:32:23.693Z,6860
2017-10-26T08:33:23.698Z,6836
2017-10-26T08:34:23.601Z,6612
2017-10-26T08:35:23.596Z,7576
2017-10-26T08:36:23.568Z,7572
2017-10-26T08:37:23.553Z,7556
2017-10-26T08:38:23.531Z,8556
2017-10-26T08:39:23.513Z,8308
2017-10-26T08:40:23.276Z,7944
2017-10-26T08:41:23.125Z,7248
2017-10-26T08:42:23.428Z,7380
2017-10-26T08:43:23.419Z,6588
2017-10-26T08:44:23.390Z,6176
2017-10-26T08:45:23.039Z,6136
2017-10-26T08:46:23.339Z,5084
2017-10-26T08:47:23.327Z,4784
2017-10-26T08:48:23.331Z,5352
2017-10-26T08:49:23.281Z,5508
2017-10-26T08:50:23.293Z,5740
2017-10-26T08:51:23.275Z,5328
2017-10-26T08:52:23.214Z,5868
2017-10-26T08:53:23.181Z,5716
2017-10-26T08:54:22.855Z,6232
2017-10-26T08:55:23.147Z,6260
2017-10-26T08:56:23.130Z,6364
2017-10-26T08:57:23.105Z,6080
2017-10-26T08:58:23.085Z,6404
2017-10-26T08:59:22.757Z,6340
2017-10-26T09:00:23.050Z,6344
2017-10-26T09:01:23.018Z,6152
2017-10-26T09:02:22.999Z,6040
2017-10-26T09:03:23.002Z,6480
2017-10-26T09:04:22.955Z,5432
2017-10-26T09:05:22.940Z,5128
2017-10-26T09:06:22.911Z,4676
2017-10-26T09:07:22.888Z,4308
2017-10-26T09:08:22.873Z,4264
2017-10-26T09:09:22.842Z,4360
2017-10-26T09:10:22.830Z,3952
2017-10-26T09:11:22.806Z,4208
2017-10-26T09:12:22.783Z,4060
2017-10-26T09:13:22.766Z,4940
2017-10-26T09:14:22.751Z,3788
2017-10-26T09:15:22.713Z,4872
2017-10-26T09:16:22.691Z,5448
2017-10-26T09:17:22.695Z,3872
2017-10-26T09:18:22.663Z,3824
2017-10-26T09:19:22.312Z,5100
2017-10-26T09:20:22.612Z,4480
2017-10-26T09:21:22.596Z,4852
2017-10-26T09:22:22.562Z,3804
2017-10-26T09:23:22.561Z,4676
2017-10-26T09:24:22.520Z,5324
2017-10-26T09:25:22.531Z,4240
2017-10-26T09:26:22.833Z,3284
2017-10-26T09:27:22.459Z,4264
2017-10-26T09:28:22.446Z,4732
2017-10-26T09:29:22.408Z,5632
2017-10-26T09:30:22.402Z,5888
2017-10-26T09:31:22.375Z,6080
2017-10-26T09:32:22.029Z,5116
2017-10-26T09:33:22.326Z,5524
2017-10-26T09:34:22.307Z,5548
2017-10-26T09:35:22.284Z,5096
2017-10-26T09:36:22.293Z,4172
2017-10-26T09:37:22.241Z,3640
2017-10-26T09:38:22.247Z,3684
2017-10-26T09:39:21.888Z,5872
2017-10-26T09:40:22.175Z,6324
2017-10-26T09:41:21.873Z,4940
2017-10-26T09:42:22.132Z,4748
2017-10-26T09:43:22.126Z,6476
2017-10-26T09:44:21.776Z,5664
2017-10-26T09:45:22.069Z,3788
2017-10-26T09:46:21.724Z,4680
2017-10-26T09:47:21.715Z,7908
2017-10-26T09:48:22.009Z,8644
2017-10-26T09:49:21.983Z,9472
2017-10-26T09:50:21.967Z,9040
2017-10-26T09:51:21.944Z,9900
2017-10-26T09:52:21.921Z,10820
2017-10-26T09:53:21.904Z,11728
2017-10-26T09:54:21.888Z,11204
2017-10-26T09:55:21.857Z,11072
2017-10-26T09:56:21.830Z,12504
2017-10-26T09:57:21.822Z,14788
2017-10-26T09:58:21.796Z,13508
2017-10-26T09:59:21.822Z,12612
2017-10-26T10:00:21.433Z,12016
2017-10-26T10:01:21.725Z,11544
2017-10-26T10:02:21.710Z,11512
2017-10-26T10:03:21.692Z,11016
2017-10-26T10:04:21.664Z,9756
2017-10-26T10:05:21.654Z,9172
2017-10-26T10:06:21.771Z,9000
2017-10-26T10:07:21.602Z,9560
2017-10-26T10:08:21.588Z,8076
2017-10-26T10:09:21.562Z,7020
2017-10-26T10:10:21.537Z,5568
2017-10-26T10:11:21.529Z,6016
2017-10-26T10:12:21.178Z,6536
2017-10-26T10:13:21.477Z,6588
2017-10-26T10:14:21.471Z,6908
2017-10-26T10:15:21.449Z,7944
2017-10-26T10:16:21.414Z,7376
2017-10-26T10:17:21.071Z,5996
2017-10-26T10:18:21.045Z,5892
2017-10-26T10:19:21.366Z,6800
2017-10-26T10:20:21.324Z,7512
2017-10-26T10:21:20.989Z,7764
2017-10-26T10:22:20.974Z,8608
2017-10-26T10:23:21.258Z,8096
2017-10-26T10:24:21.236Z,7980
2017-10-26T10:25:21.236Z,9840
2017-10-26T10:26:21.197Z,10140
2017-10-26T10:27:21.184Z,11708
2017-10-26T10:28:21.180Z,12032
2017-10-26T10:29:21.135Z,11640
2017-10-26T10:30:20.800Z,11308
2017-10-26T10:31:21.115Z,12296
2017-10-26T10:32:21.076Z,12348
2017-10-26T10:33:21.063Z,11924
2017-10-26T10:34:21.037Z,11388
2017-10-26T10:35:21.010Z,11644
2017-10-26T10:36:20.999Z,11672
2017-10-26T10:37:21.031Z,10788
2017-10-26T10:38:20.952Z,11632
2017-10-26T10:39:20.613Z,13156
2017-10-26T10:40:20.924Z,11252
2017-10-26T10:41:20.924Z,10288
2017-10-26T10:42:20.550Z,11692
2017-10-26T10:43:20.851Z,9536
2017-10-26T10:44:20.833Z,10296
2017-10-26T10:45:20.499Z,10868
2017-10-26T10:46:20.801Z,10524
2017-10-26T10:47:20.775Z,9888
2017-10-26T10:48:20.429Z,10312
2017-10-26T10:49:20.721Z,10356
2017-10-26T10:50:20.400Z,10820
2017-10-26T10:51:20.691Z,10732
2017-10-26T10:52:20.661Z,11592
2017-10-26T10:53:20.002Z,11300
2017-10-26T10:54:20.630Z,12108
2017-10-26T10:55:20.599Z,12244
2017-10-26T10:56:20.605Z,13000
2017-10-26T10:57:20.568Z,13088
2017-10-26T10:58:20.539Z,13160
2017-10-26T10:59:20.223Z,12964
2017-10-26T11:00:20.202Z,13092
2017-10-26T11:01:20.484Z,13548
2017-10-26T11:02:20.479Z,13392
2017-10-26T11:03:20.447Z,13224
2017-10-26T11:04:20.441Z,12604
2017-10-26T11:05:20.426Z,11596
2017-10-26T11:06:20.379Z,11348
2017-10-26T11:07:20.352Z,11644
2017-10-26T11:08:20.342Z,11416
2017-10-26T11:09:20.021Z,11364
2017-10-26T11:10:20.307Z,11044
2017-10-26T11:11:20.276Z,9168
2017-10-26T11:12:20.263Z,10196
2017-10-26T11:13:20.252Z,11388
2017-10-26T11:14:20.212Z,11720
2017-10-26T11:15:20.205Z,10972
2017-10-26T11:16:20.176Z,10080
2017-10-26T11:17:20.156Z,9168
2017-10-26T11:18:20.142Z,7636
2017-10-26T11:19:19.796Z,8568
2017-10-26T11:20:20.104Z,9348
2017-10-26T11:21:20.100Z,9232
2017-10-26T11:22:19.733Z,8532
2017-10-26T11:23:20.047Z,6652
2017-10-26T11:24:20.036Z,5360
2017-10-26T11:25:19.995Z,7120
2017-10-26T11:26:19.978Z,8468
2017-10-26T11:27:19.951Z,9124
2017-10-26T11:28:19.925Z,7780
2017-10-26T11:29:19.588Z,6592
2017-10-26T11:30:19.910Z,6360
2017-10-26T11:31:19.876Z,5344
2017-10-26T11:32:19.538Z,8320
2017-10-26T11:33:19.852Z,9288
2017-10-26T11:34:19.490Z,9096
2017-10-26T11:35:19.470Z,9404
2017-10-26T11:36:19.772Z,9832
2017-10-26T11:37:19.758Z,10504
2017-10-26T11:38:19.730Z,10900
2017-10-26T11:39:19.710Z,11436
2017-10-26T11:40:19.381Z,11084
2017-10-26T11:41:19.665Z,9196
2017-10-26T11:42:19.674Z,9036
2017-10-26T11:43:19.318Z,9356
2017-10-26T11:44:19.610Z,9608
2017-10-26T11:45:19.582Z,9268
2017-10-26T11:46:19.569Z,9524
2017-10-26T11:47:19.548Z,10000
2017-10-26T11:48:19.530Z,9684
2017-10-26T11:49:19.508Z,8396
2017-10-26T11:50:19.165Z,8316
2017-10-26T11:51:19.143Z,9096
2017-10-26T11:52:19.450Z,9280
2017-10-26T11:53:19.100Z,9856
2017-10-26T11:54:19.405Z,9580
2017-10-26T11:55:19.383Z,9368
2017-10-26T11:56:19.361Z,9520
2017-10-26T11:57:19.346Z,9416
2017-10-26T11:58:19.313Z,10944
2017-10-26T11:59:18.999Z,11900
2017-10-26T12:00:19.301Z,11380
2017-10-26T12:01:18.936Z,11664
2017-10-26T12:02:19.249Z,11860
2017-10-26T12:03:19.218Z,11884
2017-10-26T12:04:19.202Z,11932
2017-10-26T12:05:19.197Z,11384
2017-10-26T12:06:18.846Z,11772
2017-10-26T12:07:19.149Z,11792
2017-10-26T12:08:18.787Z,11848
2017-10-26T12:09:19.095Z,11544
2017-10-26T12:10:18.763Z,11300
2017-10-26T12:11:19.051Z,11024
2017-10-26T12:12:19.040Z,10880
2017-10-26T12:13:19.018Z,10628
2017-10-26T12:14:18.685Z,10852
2017-10-26T12:15:18.981Z,11116
2017-10-26T12:16:18.965Z,11024
2017-10-26T12:17:18.933Z,11084
2017-10-26T12:18:18.911Z,10988
2017-10-26T12:19:18.903Z,10904
2017-10-26T12:20:18.894Z,10824
2017-10-26T12:21:18.862Z,10872
2017-10-26T12:22:18.832Z,10944
2017-10-26T12:23:18.815Z,10704
2017-10-26T12:24:18.837Z,10716
2017-10-26T12:25:18.775Z,10900
2017-10-26T12:26:18.435Z,10964
2017-10-26T12:27:18.752Z,10820
2017-10-26T12:28:18.705Z,10432
2017-10-26T12:29:18.710Z,10144
2017-10-26T12:30:18.357Z,9852
2017-10-26T12:31:18.657Z,9576
2017-10-26T12:32:18.335Z,9472
2017-10-26T12:33:18.616Z,9572
2017-10-26T12:34:18.609Z,9584
2017-10-26T12:35:18.583Z,9404
2017-10-26T12:36:18.241Z,9112
2017-10-26T12:37:18.211Z,8844
2017-10-26T12:38:18.208Z,8372
2017-10-26T12:39:18.169Z,7764
2017-10-26T12:40:18.470Z,7424
2017-10-26T12:41:18.449Z,7200
2017-10-26T12:42:18.108Z,6756
2017-10-26T12:43:18.409Z,6432
2017-10-26T12:44:18.074Z,6312
2017-10-26T12:45:18.381Z,6684
2017-10-26T12:46:18.355Z,6816
2017-10-26T12:47:18.344Z,6812
2017-10-26T12:48:18.306Z,6764
2017-10-26T12:49:18.291Z,6628
2017-10-26T12:50:18.267Z,6544
2017-10-26T12:51:18.250Z,6880
2017-10-26T12:52:17.906Z,7192
2017-10-26T12:53:18.212Z,7144
2017-10-26T12:54:17.867Z,7208
2017-10-26T12:55:17.853Z,7468
2017-10-26T12:56:18.147Z,7880
2017-10-26T12:57:18.134Z,8252
2017-10-26T12:58:18.114Z,8368
2017-10-26T12:59:18.083Z,8276
2017-10-26T13:00:18.068Z,7920
2017-10-26T13:01:17.734Z,7572
2017-10-26T13:02:17.712Z,7296
2017-10-26T13:03:18.032Z,7140
2017-10-26T13:04:17.339Z,6972
2017-10-26T13:05:17.958Z,6800
2017-10-26T13:06:17.938Z,6560
2017-10-26T13:07:17.958Z,6520
2017-10-26T13:08:17.916Z,6344
2017-10-26T13:09:17.889Z,6164
2017-10-26T13:10:17.897Z,5956
2017-10-26T13:11:17.848Z,5696
2017-10-26T13:12:17.840Z,5540
2017-10-26T13:13:17.479Z,5248
2017-10-26T13:14:17.449Z,5028
2017-10-26T13:15:17.776Z,4632
2017-10-26T13:16:17.739Z,4440
2017-10-26T13:17:17.395Z,4408
2017-10-26T13:18:17.708Z,4536
2017-10-26T13:19:17.688Z,4784
2017-10-26T13:20:17.648Z,5184
2017-10-26T13:21:17.625Z,5536
2017-10-26T13:22:17.298Z,5760
2017-10-26T13:23:17.597Z,5968
2017-10-26T13:24:17.571Z,6316
2017-10-26T13:25:17.543Z,6808
2017-10-26T13:26:17.530Z,7332
2017-10-26T13:27:17.505Z,7472
2017-10-26T13:28:17.482Z,7320
2017-10-26T13:29:17.146Z,7024
2017-10-26T13:30:17.119Z,6648
2017-10-26T13:31:17.436Z,6372
2017-10-26T13:32:17.395Z,6196
2017-10-26T13:33:17.070Z,6112
2017-10-26T13:34:17.045Z,5928
2017-10-26T13:35:17.352Z,5860
2017-10-26T13:36:17.330Z,5680
2017-10-26T13:37:17.302Z,5740
2017-10-26T13:38:17.293Z,5992
2017-10-26T13:39:17.272Z,6236
2017-10-26T13:40:17.255Z,6496
2017-10-26T13:41:17.220Z,7648
2017-10-26T13:42:17.199Z,7460
2017-10-26T13:43:17.178Z,6972
2017-10-26T13:44:17.154Z,6444
2017-10-26T13:45:16.827Z,6060
2017-10-26T13:46:17.127Z,5748
2017-10-26T13:47:17.094Z,5752
2017-10-26T13:48:17.072Z,5772
2017-10-26T13:49:17.056Z,5764
2017-10-26T13:50:17.065Z,5656
2017-10-26T13:51:17.014Z,5536
2017-10-26T13:52:16.994Z,5572
2017-10-26T13:53:16.964Z,5644